Isle Royale National Park, MI

7:44 AM EST on March 03, 2015 (GMT -0500)
Hancock: Sylvan Estates | Change Station
CLOSE
Current Station
Personal Weather Station
Location: Hancock, MI
Elevation: 917 ft
Nearby Weather Stations
Active Advisory: Winter Weather Advisory

Elev 917 ft 47.14 °N, 88.60 °W | Updated 4 minutes ago

Overcast
Overcast
20.9 °F
Feels Like 21 °F
N
1.0
Wind Variable Wind from SSE
Gusts 7.0 mph

Today
High -- | Low -- °F
--% Chance of Precip.
Yesterday
High -- | Low -- °F
Precip. -- in
7:30 AM 6:42 PM
Waxing Gibbous, 96% visible
Pressure 29.86 in
Visibility 10.0 miles
Clouds Overcast 9000 ft
Windchill 21 °F
Dew Point 14 °F
Humidity 74%
Rainfall 0.00 in
Snow Depth Not available.
UV 0 out of 12
Pollen .10 out of 12
Air Quality Not available.
Flu Activity Not available.
METAR KCMX 031153Z AUTO 20007KT 10SM OVC090 M08/M15 A2979 RMK AO2 SLP110 T10781150 11078 21122 56039

More Conditions Fewer Conditions

Pressure 29.86 in
Visibility 10.0 miles
Clouds Overcast 9000 ft
Windchill 21 °F
Dew Point 14 °F
Humidity 74%
Rainfall 0.00 in
Snow Depth Not available.
UV 0 out of 12
Pollen .10 out of 12
Air Quality Not available.
Flu Activity Not available.
METAR KCMX 031153Z AUTO 20007KT 10SM OVC090 M08/M15 A2979 RMK AO2 SLP110 T10781150 11078 21122 56039

More Conditions Fewer Conditions

10-Day Weather Forecast

Almanac

Astronomy

Mar. 03, 2015 Rise Set
Actual Time
Civil Twilight
Nautical Twilight
Astronomical Twilight
Moon
Length of Visible Light
Length of Day
Tomorrow will be .
, % of the Moon is Illuminated

Today's Extremes

State Highs State Lows

Community

WunderPhotos

Upload Photos

1,802,096 photos uploaded!

WunderBlogs® & News

Nearby

Air Quality

  Air Quality AQ Index Pollutant
Not available.

Snow Depth

Station Depth Elevation

Earthquake Activity

City Distance Mag. Time & Date
Minimum magnitude displayed is 2.5.

Coastal Water Temperatures

Place Temperature

Nearby Weather Stations

Winter Weather Advisory
Statement as of 4:33 AM EST on March 03, 2015

... Winter Weather Advisory remains in effect until 7 PM EST this
evening...

Hazardous weather...

* light snow will develop this morning and then fall moderately at
   times into the afternoon. The snow will then quickly diminish
   during the mid and late afternoon hours.

* Plan on storm total snow accumulations of 3 to 5 inches by late
   this afternoon... with the heavier snow expected southeast of the
   Huron Mountains and Marquette.

Impacts...

* roads will quickly become snow covered and slippery this morning.

Precautionary/preparedness actions...

* a Winter Weather Advisory for snow means that periods of snow
   will cause primarily travel difficulties.

* Prepare... plan... and stay informed. Visit www.Weather.Gov/MQT